Aérodrome :
LOGIN :

S'inscrire | Disclaimer

   EN    FR    IT 

 










Légende :    VFR   VFR Marginal   IFR   IFR Intensif   IFR Très Intensif
Visi : 
Plafond : 
>= 8 km
>= 3000ft
5 à 8 km
1000 à 3000 ft
1500m à 5 km
500 à 1000 ft
800 à 1500m
200 à 500 ft
< 800m
< 200 ft
Symboles :   Orages  Brouillard  Fortes neiges  Fortes précipitations  Vent > 20 kt
SIGMETs :   Divers  Orages  Givrage  Turbulence  Onde Orograph.  Cendres Volcan.






- Altitude de l'aérodrome : 1079 ft


ETIK - Illesheim Air Base

DERNIER METAR :
  • 271555Z AUTO 19005KT 9999 FEW085 19/14 A2999 RMK AO2 SLP156 T01920138

METARs EXPIRÉS :
  • 271455Z AUTO 15003KT 9999 BKN090 20/14 A3000 RMK AO2 SLP159 T01960144 57018
  • 271355Z AUTO 21005KT 9999 FEW035 FEW080 SCT100 SCT160 BKN190 20/13 A3002 RMK AO2 SLP166 T02020134 $
  • 271255Z AUTO 20006KT 9999 FEW034 SCT075 SCT140 BKN170 21/13 A3003 RMK AO2 SLP168 T02070134
  • 271155Z AUTO 18004KT 9999 FEW070 21/14 A3005 RMK AO2 SLP175 60000 70001 T02080142 10209 20158 57014

TAF AMD TAF ETIK
Valide du 27 à 08h jusqu'au 28 à 12h UTC


270800Z 2708/2812 VRB06KT 9999 BKN040 OVC080 QNH3006INS
BECMG 2711/2712 VRB06KT 9000 -SHRA BKN030 OVC060 QNH2999INS
TEMPO 2716/2720 20012G18KT 6000 TSRA BKN020CB
BECMG 2719/2720 26010G15KT 8000 -SHRA BKN025 OVC040 QNH3001INS
BECMG 2802/2803 27009KT 8000 BR SCT020 OVC030 QNH3003INS
BECMG 2805/2806 27009KT 9999 NSW BKN030 BKN060 QNH3007INS
BECMG 2807/2808 28010G15KT 9999 SCT030 BKN050 QNH3010INS TX20/2715Z TN10/2804Z LAST NO AMDS AFT 2708 NEXT 2806



MET'MAP, la Météo Aéronautique d'un coup d'oeil ! - Copyright ORBIFLY Décembre 2007 - Disclaimer

ORBIFLY MET'MAP TEAM :

Programmation & Développement : Alexandra Zaïnal
Sur une idée originale de : Baudouin d'Aumeries
Soutien technique & logistique : Manuel Goepfert
Assistance : Marc-Olivier Méhu




SOURCES & CREDITS :

   NOAA